sensor_id;sensor_type;location;lat;lon;timestamp;pressure;altitude;pressure_sealevel;temperature;humidity
7774;BME280;3931;42.260;23.116;2022-09-01T00:02:04;95126.84;;;27.79;65.49
7774;BME280;3931;42.260;23.116;2022-09-01T00:04:34;95120.22;;;27.48;66.05
7774;BME280;3931;42.260;23.116;2022-09-01T00:07:04;95063.56;;;27.01;68.50
7774;BME280;3931;42.260;23.116;2022-09-01T00:09:30;95072.19;;;27.16;68.12
7774;BME280;3931;42.260;23.116;2022-09-01T00:11:56;95091.81;;;27.27;67.96
7774;BME280;3931;42.260;23.116;2022-09-01T00:14:24;95146.75;;;27.79;65.13
7774;BME280;3931;42.260;23.116;2022-09-01T00:16:51;95165.22;;;27.85;64.02
7774;BME280;3931;42.260;23.116;2022-09-01T00:19:18;95183.06;;;28.22;63.32
7774;BME280;3931;42.260;23.116;2022-09-01T00:21:44;95205.59;;;28.48;61.86
7774;BME280;3931;42.260;23.116;2022-09-01T00:24:13;95198.94;;;28.53;61.58
7774;BME280;3931;42.260;23.116;2022-09-01T00:26:40;95203.50;;;28.48;61.50
7774;BME280;3931;42.260;23.116;2022-09-01T00:29:06;95190.41;;;28.45;62.56
7774;BME280;3931;42.260;23.116;2022-09-01T00:31:33;95203.75;;;28.58;61.44
7774;BME280;3931;42.260;23.116;2022-09-01T00:34:00;95199.47;;;28.36;62.38
7774;BME280;3931;42.260;23.116;2022-09-01T00:36:26;95200.63;;;28.41;61.69
7774;BME280;3931;42.260;23.116;2022-09-01T00:38:52;95214.56;;;28.59;60.76
7774;BME280;3931;42.260;23.116;2022-09-01T00:41:22;95213.38;;;28.47;61.14
7774;BME280;3931;42.260;23.116;2022-09-01T00:43:50;95182.69;;;27.97;62.81
7774;BME280;3931;42.260;23.116;2022-09-01T00:46:19;95190.88;;;28.29;61.81
7774;BME280;3931;42.260;23.116;2022-09-01T00:48:46;95222.19;;;28.64;60.95
7774;BME280;3931;42.260;23.116;2022-09-01T00:51:14;95208.41;;;28.40;61.39
7774;BME280;3931;42.260;23.116;2022-09-01T00:53:42;95195.00;;;28.20;62.24
7774;BME280;3931;42.260;23.116;2022-09-01T00:56:10;95200.81;;;28.43;61.52
7774;BME280;3931;42.260;23.116;2022-09-01T00:58:38;95189.47;;;27.86;62.76
7774;BME280;3931;42.260;23.116;2022-09-01T01:01:05;95143.31;;;27.44;65.11
7774;BME280;3931;42.260;23.116;2022-09-01T01:03:31;95168.75;;;27.78;64.30
7774;BME280;3931;42.260;23.116;2022-09-01T01:06:00;95196.13;;;28.17;63.01
7774;BME280;3931;42.260;23.116;2022-09-01T01:08:31;95199.16;;;28.11;62.81
7774;BME280;3931;42.260;23.116;2022-09-01T01:10:58;95214.22;;;28.27;61.91
7774;BME280;3931;42.260;23.116;2022-09-01T01:13:25;95228.53;;;28.42;61.16
7774;BME280;3931;42.260;23.116;2022-09-01T01:15:54;95237.38;;;28.31;60.85
7774;BME280;3931;42.260;23.116;2022-09-01T01:18:20;95233.41;;;28.06;61.21
7774;BME280;3931;42.260;23.116;2022-09-01T01:20:47;95230.38;;;27.83;61.38
7774;BME280;3931;42.260;23.116;2022-09-01T01:23:37;95204.59;;;27.81;62.43
7774;BME280;3931;42.260;23.116;2022-09-01T01:26:07;95227.19;;;27.87;61.91
7774;BME280;3931;42.260;23.116;2022-09-01T01:28:38;95232.88;;;27.87;61.63
7774;BME280;3931;42.260;23.116;2022-09-01T01:31:06;95212.59;;;27.62;62.51
7774;BME280;3931;42.260;23.116;2022-09-01T01:33:38;95222.22;;;27.80;61.92
7774;BME280;3931;42.260;23.116;2022-09-01T01:36:07;95207.59;;;27.34;62.91
7774;BME280;3931;42.260;23.116;2022-09-01T01:38:37;95191.78;;;27.05;63.71
7774;BME280;3931;42.260;23.116;2022-09-01T01:41:05;95175.59;;;27.13;64.24
7774;BME280;3931;42.260;23.116;2022-09-01T01:43:31;95168.94;;;27.11;64.75
7774;BME280;3931;42.260;23.116;2022-09-01T01:45:58;95166.69;;;26.96;65.03
7774;BME280;3931;42.260;23.116;2022-09-01T01:48:28;95160.97;;;26.89;64.90
7774;BME280;3931;42.260;23.116;2022-09-01T01:50:55;95173.72;;;27.16;64.32
7774;BME280;3931;42.260;23.116;2022-09-01T01:53:22;95209.47;;;27.73;62.44
7774;BME280;3931;42.260;23.116;2022-09-01T01:55:48;95210.78;;;27.72;62.01
7774;BME280;3931;42.260;23.116;2022-09-01T01:58:15;95183.00;;;27.16;63.71
7774;BME280;3931;42.260;23.116;2022-09-01T02:00:44;95209.09;;;27.49;62.28
7774;BME280;3931;42.260;23.116;2022-09-01T02:03:12;95199.94;;;27.42;63.39
7774;BME280;3931;42.260;23.116;2022-09-01T02:05:41;95208.50;;;27.71;61.93
7774;BME280;3931;42.260;23.116;2022-09-01T02:08:09;95214.41;;;27.52;62.09
7774;BME280;3931;42.260;23.116;2022-09-01T02:10:39;95205.47;;;27.27;62.89
7774;BME280;3931;42.260;23.116;2022-09-01T02:13:07;95192.75;;;27.08;64.03
7774;BME280;3931;42.260;23.116;2022-09-01T02:15:39;95212.97;;;27.38;63.28
7774;BME280;3931;42.260;23.116;2022-09-01T02:18:08;95228.69;;;27.60;61.81
7774;BME280;3931;42.260;23.116;2022-09-01T02:20:35;95223.00;;;27.39;62.94
7774;BME280;3931;42.260;23.116;2022-09-01T02:23:01;95204.75;;;26.93;64.17
7774;BME280;3931;42.260;23.116;2022-09-01T02:25:33;95135.09;;;26.12;67.80
7774;BME280;3931;42.260;23.116;2022-09-01T02:28:00;95137.88;;;26.38;68.07
7774;BME280;3931;42.260;23.116;2022-09-01T02:30:28;95179.84;;;26.52;66.45
7774;BME280;3931;42.260;23.116;2022-09-01T02:32:57;95180.19;;;26.49;66.54
7774;BME280;3931;42.260;23.116;2022-09-01T02:35:24;95167.34;;;26.35;66.75
7774;BME280;3931;42.260;23.116;2022-09-01T02:37:53;95196.78;;;26.32;65.35
7774;BME280;3931;42.260;23.116;2022-09-01T02:40:22;95182.09;;;26.20;65.93
7774;BME280;3931;42.260;23.116;2022-09-01T02:42:48;95170.66;;;26.13;66.62
7774;BME280;3931;42.260;23.116;2022-09-01T02:45:17;95167.84;;;26.46;66.14
7774;BME280;3931;42.260;23.116;2022-09-01T02:47:44;95126.25;;;26.15;67.64
7774;BME280;3931;42.260;23.116;2022-09-01T02:50:14;95168.66;;;26.67;65.87
7774;BME280;3931;42.260;23.116;2022-09-01T02:52:44;95207.38;;;27.12;63.59
7774;BME280;3931;42.260;23.116;2022-09-01T02:55:13;95194.84;;;26.87;64.72
7774;BME280;3931;42.260;23.116;2022-09-01T02:57:45;95200.84;;;26.83;64.32
7774;BME280;3931;42.260;23.116;2022-09-01T03:00:14;95195.59;;;26.87;64.39
7774;BME280;3931;42.260;23.116;2022-09-01T03:02:49;95206.47;;;26.96;64.03
7774;BME280;3931;42.260;23.116;2022-09-01T03:05:17;95193.31;;;27.06;64.12
7774;BME280;3931;42.260;23.116;2022-09-01T03:07:51;95187.09;;;26.87;64.88
7774;BME280;3931;42.260;23.116;2022-09-01T03:10:22;95176.00;;;26.76;65.39
7774;BME280;3931;42.260;23.116;2022-09-01T03:12:52;95219.38;;;27.18;62.95
7774;BME280;3931;42.260;23.116;2022-09-01T03:15:19;95211.84;;;27.20;63.35
7774;BME280;3931;42.260;23.116;2022-09-01T03:17:46;95224.72;;;27.21;62.66
7774;BME280;3931;42.260;23.116;2022-09-01T03:20:12;95217.09;;;27.16;62.91
7774;BME280;3931;42.260;23.116;2022-09-01T03:22:39;95168.78;;;26.75;65.47
7774;BME280;3931;42.260;23.116;2022-09-01T03:25:06;95195.53;;;27.21;64.06
7774;BME280;3931;42.260;23.116;2022-09-01T03:27:32;95199.34;;;27.23;63.74
7774;BME280;3931;42.260;23.116;2022-09-01T03:29:58;95230.56;;;27.36;62.74
7774;BME280;3931;42.260;23.116;2022-09-01T03:32:24;95215.38;;;27.13;63.59
7774;BME280;3931;42.260;23.116;2022-09-01T03:34:50;95201.63;;;27.04;63.96
7774;BME280;3931;42.260;23.116;2022-09-01T03:37:16;95189.41;;;26.96;65.02
7774;BME280;3931;42.260;23.116;2022-09-01T03:39:44;95222.72;;;27.29;63.55
7774;BME280;3931;42.260;23.116;2022-09-01T03:42:10;95222.19;;;26.97;63.96
7774;BME280;3931;42.260;23.116;2022-09-01T03:44:36;95175.09;;;26.68;65.79
7774;BME280;3931;42.260;23.116;2022-09-01T03:47:05;95194.25;;;26.54;65.20
7774;BME280;3931;42.260;23.116;2022-09-01T03:49:34;95179.38;;;26.15;65.80
7774;BME280;3931;42.260;23.116;2022-09-01T03:52:02;95178.59;;;26.14;66.38
7774;BME280;3931;42.260;23.116;2022-09-01T03:54:28;95171.72;;;26.10;66.48
7774;BME280;3931;42.260;23.116;2022-09-01T03:56:55;95159.41;;;25.81;67.24
7774;BME280;3931;42.260;23.116;2022-09-01T03:59:24;95145.25;;;25.68;67.83
7774;BME280;3931;42.260;23.116;2022-09-01T04:01:50;95123.88;;;25.67;68.72
7774;BME280;3931;42.260;23.116;2022-09-01T04:04:16;95182.97;;;26.15;66.94
7774;BME280;3931;42.260;23.116;2022-09-01T04:06:44;95181.97;;;25.99;66.55
7774;BME280;3931;42.260;23.116;2022-09-01T04:09:11;95103.72;;;25.57;69.99
7774;BME280;3931;42.260;23.116;2022-09-01T04:11:37;95150.34;;;25.82;68.22
7774;BME280;3931;42.260;23.116;2022-09-01T04:14:05;95182.41;;;26.17;66.78
7774;BME280;3931;42.260;23.116;2022-09-01T04:16:33;95117.34;;;25.59;69.71
7774;BME280;3931;42.260;23.116;2022-09-01T04:19:19;95099.09;;;25.28;70.78
7774;BME280;3931;42.260;23.116;2022-09-01T04:21:50;95107.31;;;25.71;70.35
7774;BME280;3931;42.260;23.116;2022-09-01T04:24:18;95157.34;;;25.94;68.19
7774;BME280;3931;42.260;23.116;2022-09-01T04:26:45;95125.28;;;25.86;69.72
7774;BME280;3931;42.260;23.116;2022-09-01T04:29:15;95134.31;;;25.85;69.61
7774;BME280;3931;42.260;23.116;2022-09-01T04:31:43;95139.47;;;26.13;68.94
7774;BME280;3931;42.260;23.116;2022-09-01T04:34:17;95071.66;;;25.49;72.05
7774;BME280;3931;42.260;23.116;2022-09-01T04:36:44;95083.22;;;25.77;70.97
7774;BME280;3931;42.260;23.116;2022-09-01T04:39:11;95071.34;;;25.66;71.54
7774;BME280;3931;42.260;23.116;2022-09-01T04:41:42;95055.13;;;25.66;72.45
7774;BME280;3931;42.260;23.116;2022-09-01T04:44:09;95141.13;;;26.42;68.95
7774;BME280;3931;42.260;23.116;2022-09-01T04:46:37;95135.28;;;26.14;69.48
7774;BME280;3931;42.260;23.116;2022-09-01T04:49:07;95128.84;;;26.26;69.45
7774;BME280;3931;42.260;23.116;2022-09-01T04:51:37;95151.66;;;26.54;68.02
7774;BME280;3931;42.260;23.116;2022-09-01T04:54:03;95107.41;;;26.38;69.59
7774;BME280;3931;42.260;23.116;2022-09-01T04:56:37;95086.88;;;26.12;70.80
7774;BME280;3931;42.260;23.116;2022-09-01T04:59:04;95078.34;;;26.12;71.18
7774;BME280;3931;42.260;23.116;2022-09-01T05:01:33;95124.88;;;26.63;68.95
7774;BME280;3931;42.260;23.116;2022-09-01T05:04:08;95140.41;;;26.96;nan
7774;BME280;3931;42.260;23.116;2022-09-01T05:06:34;95147.25;;;27.00;67.58
7774;BME280;3931;42.260;23.116;2022-09-01T05:09:03;95097.34;;;26.50;69.99
7774;BME280;3931;42.260;23.116;2022-09-01T05:11:30;95082.06;;;26.74;70.67
7774;BME280;3931;42.260;23.116;2022-09-01T05:13:57;95070.38;;;26.78;71.04
7774;BME280;3931;42.260;23.116;2022-09-01T05:16:24;95147.25;;;27.21;67.86
7774;BME280;3931;42.260;23.116;2022-09-01T05:18:52;95154.66;;;27.24;67.45
7774;BME280;3931;42.260;23.116;2022-09-01T05:21:22;95188.00;;;27.65;65.72
7774;BME280;3931;42.260;23.116;2022-09-01T05:23:51;95205.72;;;27.78;64.81
7774;BME280;3931;42.260;23.116;2022-09-01T05:26:20;95242.59;;;28.12;62.37
7774;BME280;3931;42.260;23.116;2022-09-01T05:28:49;95247.13;;;28.15;62.33
7774;BME280;3931;42.260;23.116;2022-09-01T05:31:15;95234.25;;;27.93;63.23
7774;BME280;3931;42.260;23.116;2022-09-01T05:33:44;95252.88;;;28.23;61.71
7774;BME280;3931;42.260;23.116;2022-09-01T05:36:14;95260.19;;;28.39;60.65
7774;BME280;3931;42.260;23.116;2022-09-01T05:38:41;95266.03;;;28.33;61.25
7774;BME280;3931;42.260;23.116;2022-09-01T05:41:08;95237.50;;;28.18;61.88
7774;BME280;3931;42.260;23.116;2022-09-01T05:43:35;95252.00;;;28.63;61.17
7774;BME280;3931;42.260;23.116;2022-09-01T05:46:05;95174.63;;;27.52;65.96
7774;BME280;3931;42.260;23.116;2022-09-01T05:48:32;95213.56;;;28.13;63.64
7774;BME280;3931;42.260;23.116;2022-09-01T05:51:04;95235.25;;;28.24;62.54
7774;BME280;3931;42.260;23.116;2022-09-01T05:53:31;95257.03;;;28.85;60.41
7774;BME280;3931;42.260;23.116;2022-09-01T05:56:00;95268.75;;;29.18;58.78
7774;BME280;3931;42.260;23.116;2022-09-01T05:58:32;95239.00;;;28.55;61.08
7774;BME280;3931;42.260;23.116;2022-09-01T06:01:00;95264.50;;;29.11;59.39
7774;BME280;3931;42.260;23.116;2022-09-01T06:03:26;95276.41;;;29.53;57.61
7774;BME280;3931;42.260;23.116;2022-09-01T06:05:53;95273.34;;;29.36;58.48
7774;BME280;3931;42.260;23.116;2022-09-01T06:08:22;95273.25;;;29.79;56.92
7774;BME280;3931;42.260;23.116;2022-09-01T06:10:49;95262.53;;;29.42;58.05
7774;BME280;3931;42.260;23.116;2022-09-01T06:13:17;95262.78;;;29.01;58.66
7774;BME280;3931;42.260;23.116;2022-09-01T06:15:47;95271.50;;;29.69;56.66
7774;BME280;3931;42.260;23.116;2022-09-01T06:18:14;95289.41;;;30.14;55.19
7774;BME280;3931;42.260;23.116;2022-09-01T06:20:44;95268.88;;;29.78;56.44
7774;BME280;3931;42.260;23.116;2022-09-01T06:23:12;95280.09;;;29.76;56.77
7774;BME280;3931;42.260;23.116;2022-09-01T06:25:40;95265.78;;;29.69;57.12
7774;BME280;3931;42.260;23.116;2022-09-01T06:28:06;95262.34;;;29.47;57.33
7774;BME280;3931;42.260;23.116;2022-09-01T06:30:33;95263.84;;;29.48;57.88
7774;BME280;3931;42.260;23.116;2022-09-01T06:33:01;95264.09;;;29.66;57.06
7774;BME280;3931;42.260;23.116;2022-09-01T06:35:29;95264.66;;;29.56;57.28
7774;BME280;3931;42.260;23.116;2022-09-01T06:37:57;95252.81;;;29.37;58.20
7774;BME280;3931;42.260;23.116;2022-09-01T06:40:23;95257.81;;;29.67;57.32
7774;BME280;3931;42.260;23.116;2022-09-01T06:42:51;95260.31;;;29.78;57.44
7774;BME280;3931;42.260;23.116;2022-09-01T06:45:19;95266.22;;;30.33;56.05
7774;BME280;3931;42.260;23.116;2022-09-01T06:47:47;95256.88;;;29.80;57.21
7774;BME280;3931;42.260;23.116;2022-09-01T06:50:18;95268.66;;;30.37;55.96
7774;BME280;3931;42.260;23.116;2022-09-01T06:52:46;95274.72;;;30.56;54.50
7774;BME280;3931;42.260;23.116;2022-09-01T06:55:15;95271.59;;;30.84;54.23
7774;BME280;3931;42.260;23.116;2022-09-01T06:57:42;95262.50;;;30.70;54.84
7774;BME280;3931;42.260;23.116;2022-09-01T07:00:19;95261.13;;;31.26;52.84
7774;BME280;3931;42.260;23.116;2022-09-01T07:02:47;95267.84;;;31.14;53.70
7774;BME280;3931;42.260;23.116;2022-09-01T07:05:18;95258.28;;;31.26;53.86
7774;BME280;3931;42.260;23.116;2022-09-01T07:07:46;95275.38;;;31.98;52.35
7774;BME280;3931;42.260;23.116;2022-09-01T07:10:16;95264.91;;;32.35;51.19
7774;BME280;3931;42.260;23.116;2022-09-01T07:12:47;95273.81;;;31.40;52.24
7774;BME280;3931;42.260;23.116;2022-09-01T07:15:13;95269.50;;;31.89;51.35
7774;BME280;3931;42.260;23.116;2022-09-01T07:17:42;95262.88;;;30.67;54.14
7774;BME280;3931;42.260;23.116;2022-09-01T07:20:14;95267.22;;;31.23;53.32
7774;BME280;3931;42.260;23.116;2022-09-01T07:22:40;95254.09;;;30.72;54.20
7774;BME280;3931;42.260;23.116;2022-09-01T07:25:07;95259.31;;;31.46;52.73
7774;BME280;3931;42.260;23.116;2022-09-01T07:27:36;95263.63;;;31.22;53.68
7774;BME280;3931;42.260;23.116;2022-09-01T07:30:04;95258.84;;;31.57;53.21
7774;BME280;3931;42.260;23.116;2022-09-01T07:32:34;95269.22;;;31.45;53.69
7774;BME280;3931;42.260;23.116;2022-09-01T07:35:01;95236.47;;;30.44;57.10
7774;BME280;3931;42.260;23.116;2022-09-01T07:37:28;95256.66;;;31.08;54.93
7774;BME280;3931;42.260;23.116;2022-09-01T07:39:56;95251.34;;;30.42;55.90
7774;BME280;3931;42.260;23.116;2022-09-01T07:42:23;95255.81;;;30.68;55.96
7774;BME280;3931;42.260;23.116;2022-09-01T07:44:49;95256.16;;;30.79;55.62
7774;BME280;3931;42.260;23.116;2022-09-01T07:47:15;95258.72;;;31.15;54.70
7774;BME280;3931;42.260;23.116;2022-09-01T07:49:42;95268.59;;;31.54;53.63
7774;BME280;3931;42.260;23.116;2022-09-01T07:52:08;95267.34;;;31.40;53.91
7774;BME280;3931;42.260;23.116;2022-09-01T07:54:35;95267.59;;;32.16;52.49
7774;BME280;3931;42.260;23.116;2022-09-01T07:57:03;95262.53;;;32.24;51.56
7774;BME280;3931;42.260;23.116;2022-09-01T07:59:30;95260.59;;;32.68;50.41
7774;BME280;3931;42.260;23.116;2022-09-01T08:01:57;95257.81;;;31.69;51.99
7774;BME280;3931;42.260;23.116;2022-09-01T08:04:25;95258.78;;;32.38;50.52
7774;BME280;3931;42.260;23.116;2022-09-01T08:06:51;95263.03;;;32.55;50.48
7774;BME280;3931;42.260;23.116;2022-09-01T08:09:17;95253.25;;;32.92;50.36
7774;BME280;3931;42.260;23.116;2022-09-01T08:11:44;95257.81;;;33.39;49.21
7774;BME280;3931;42.260;23.116;2022-09-01T08:14:10;95260.66;;;33.56;48.36
7774;BME280;3931;42.260;23.116;2022-09-01T08:16:36;95255.13;;;33.67;48.29
7774;BME280;3931;42.260;23.116;2022-09-01T08:19:02;95257.81;;;33.92;47.71
7774;BME280;3931;42.260;23.116;2022-09-01T08:21:29;95259.72;;;34.16;47.28
7774;BME280;3931;42.260;23.116;2022-09-01T08:23:55;95257.63;;;34.17;47.08
7774;BME280;3931;42.260;23.116;2022-09-01T08:26:24;95250.22;;;34.33;47.46
7774;BME280;3931;42.260;23.116;2022-09-01T08:28:52;95248.59;;;33.94;47.97
7774;BME280;3931;42.260;23.116;2022-09-01T08:31:19;95236.06;;;33.99;46.70
7774;BME280;3931;42.260;23.116;2022-09-01T08:33:47;95238.06;;;34.71;45.69
7774;BME280;3931;42.260;23.116;2022-09-01T08:36:15;95233.38;;;34.85;45.74
7774;BME280;3931;42.260;23.116;2022-09-01T08:38:42;95226.25;;;34.86;44.66
7774;BME280;3931;42.260;23.116;2022-09-01T08:41:15;95231.53;;;34.99;44.90
7774;BME280;3931;42.260;23.116;2022-09-01T08:43:49;95224.56;;;35.21;44.11
7774;BME280;3931;42.260;23.116;2022-09-01T08:46:21;95222.78;;;34.87;43.70
7774;BME280;3931;42.260;23.116;2022-09-01T08:48:51;95220.16;;;35.39;43.23
7774;BME280;3931;42.260;23.116;2022-09-01T08:51:21;95216.09;;;35.23;44.17
7774;BME280;3931;42.260;23.116;2022-09-01T08:53:56;95205.66;;;34.51;45.64
7774;BME280;3931;42.260;23.116;2022-09-01T08:56:24;95208.81;;;34.45;45.43
7774;BME280;3931;42.260;23.116;2022-09-01T08:58:51;95208.66;;;35.20;45.00
7774;BME280;3931;42.260;23.116;2022-09-01T09:01:23;95205.50;;;34.87;45.49
7774;BME280;3931;42.260;23.116;2022-09-01T09:04:11;95193.88;;;34.76;45.11
7774;BME280;3931;42.260;23.116;2022-09-01T09:06:46;95194.44;;;35.72;44.00
7774;BME280;3931;42.260;23.116;2022-09-01T09:09:15;95198.72;;;36.02;43.16
7774;BME280;3931;42.260;23.116;2022-09-01T09:12:05;95190.22;;;35.73;43.36
7774;BME280;3931;42.260;23.116;2022-09-01T09:14:50;95182.00;;;35.29;45.19
7774;BME280;3931;42.260;23.116;2022-09-01T09:17:23;95185.63;;;35.30;44.93
7774;BME280;3931;42.260;23.116;2022-09-01T09:19:50;95179.31;;;34.35;45.77
7774;BME280;3931;42.260;23.116;2022-09-01T09:22:18;95177.78;;;35.11;44.32
7774;BME280;3931;42.260;23.116;2022-09-01T09:24:49;95183.06;;;35.74;43.38
7774;BME280;3931;42.260;23.116;2022-09-01T09:27:18;95178.53;;;35.21;43.30
7774;BME280;3931;42.260;23.116;2022-09-01T09:29:46;95176.56;;;35.33;43.18
7774;BME280;3931;42.260;23.116;2022-09-01T09:32:13;95167.59;;;36.73;41.42
7774;BME280;3931;42.260;23.116;2022-09-01T09:34:41;95164.34;;;36.79;41.07
7774;BME280;3931;42.260;23.116;2022-09-01T09:37:22;95157.38;;;36.39;42.38
7774;BME280;3931;42.260;23.116;2022-09-01T09:40:10;95162.53;;;36.62;42.18
7774;BME280;3931;42.260;23.116;2022-09-01T09:42:41;95160.41;;;36.41;41.44
7774;BME280;3931;42.260;23.116;2022-09-01T09:45:22;95156.84;;;36.85;40.75
7774;BME280;3931;42.260;23.116;2022-09-01T09:47:50;95154.47;;;36.82;40.96
7774;BME280;3931;42.260;23.116;2022-09-01T09:50:20;95155.38;;;36.84;40.40
7774;BME280;3931;42.260;23.116;2022-09-01T09:52:48;95149.16;;;37.44;39.86
7774;BME280;3931;42.260;23.116;2022-09-01T09:55:24;95153.88;;;36.41;40.79
7774;BME280;3931;42.260;23.116;2022-09-01T09:57:54;95149.94;;;37.00;39.18
7774;BME280;3931;42.260;23.116;2022-09-01T10:00:23;95146.75;;;35.69;41.08
7774;BME280;3931;42.260;23.116;2022-09-01T10:02:55;95141.28;;;36.25;39.96
7774;BME280;3931;42.260;23.116;2022-09-01T10:05:28;95135.91;;;37.17;38.95
7774;BME280;3931;42.260;23.116;2022-09-01T10:07:57;95133.78;;;36.85;39.80
7774;BME280;3931;42.260;23.116;2022-09-01T10:10:27;95134.34;;;37.38;38.32
7774;BME280;3931;42.260;23.116;2022-09-01T10:12:54;95131.22;;;37.45;38.30
7774;BME280;3931;42.260;23.116;2022-09-01T10:15:24;95128.44;;;37.36;37.90
7774;BME280;3931;42.260;23.116;2022-09-01T10:17:52;95122.19;;;37.62;38.02
7774;BME280;3931;42.260;23.116;2022-09-01T10:20:22;95119.16;;;37.37;38.42
7774;BME280;3931;42.260;23.116;2022-09-01T10:22:51;95111.38;;;37.40;38.88
7774;BME280;3931;42.260;23.116;2022-09-01T10:25:19;95112.72;;;38.20;37.66
7774;BME280;3931;42.260;23.116;2022-09-01T10:27:48;95115.34;;;38.39;38.14
7774;BME280;3931;42.260;23.116;2022-09-01T10:30:16;95116.38;;;38.94;37.34
7774;BME280;3931;42.260;23.116;2022-09-01T10:32:44;95113.75;;;38.73;36.67
7774;BME280;3931;42.260;23.116;2022-09-01T10:35:15;95108.78;;;37.90;37.07
7774;BME280;3931;42.260;23.116;2022-09-01T10:37:43;95106.66;;;38.39;37.13
7774;BME280;3931;42.260;23.116;2022-09-01T10:40:15;95106.66;;;38.76;37.85
7774;BME280;3931;42.260;23.116;2022-09-01T10:42:43;95114.25;;;38.57;37.72
7774;BME280;3931;42.260;23.116;2022-09-01T10:45:18;95105.50;;;37.61;38.59
7774;BME280;3931;42.260;23.116;2022-09-01T10:47:47;95111.84;;;38.29;37.41
7774;BME280;3931;42.260;23.116;2022-09-01T10:50:27;95106.25;;;38.44;36.61
7774;BME280;3931;42.260;23.116;2022-09-01T10:53:04;95110.25;;;38.51;36.75
7774;BME280;3931;42.260;23.116;2022-09-01T10:55:39;95103.44;;;38.58;36.16
7774;BME280;3931;42.260;23.116;2022-09-01T10:58:35;95107.88;;;39.34;36.42
7774;BME280;3931;42.260;23.116;2022-09-01T11:01:04;95102.84;;;39.35;36.21
7774;BME280;3931;42.260;23.116;2022-09-01T11:03:51;95101.81;;;38.92;36.49
7774;BME280;3931;42.260;23.116;2022-09-01T11:06:55;95090.66;;;38.49;37.03
7774;BME280;3931;42.260;23.116;2022-09-01T11:09:29;95083.50;;;39.01;36.38
7774;BME280;3931;42.260;23.116;2022-09-01T11:14:52;95078.97;;;38.47;36.91
7774;BME280;3931;42.260;23.116;2022-09-01T11:17:22;95074.25;;;38.91;36.35
7774;BME280;3931;42.260;23.116;2022-09-01T11:19:59;95070.41;;;39.00;36.49
7774;BME280;3931;42.260;23.116;2022-09-01T11:22:31;95064.81;;;39.15;35.91
7774;BME280;3931;42.260;23.116;2022-09-01T11:28:39;95062.88;;;39.20;35.41
7774;BME280;3931;42.260;23.116;2022-09-01T11:31:21;95057.84;;;38.45;35.79
7774;BME280;3931;42.260;23.116;2022-09-01T11:33:58;95046.47;;;38.60;36.71
7774;BME280;3931;42.260;23.116;2022-09-01T11:36:30;95042.53;;;38.42;35.21
7774;BME280;3931;42.260;23.116;2022-09-01T11:39:05;95037.69;;;38.84;35.61
7774;BME280;3931;42.260;23.116;2022-09-01T11:41:41;95034.38;;;39.28;35.29
7774;BME280;3931;42.260;23.116;2022-09-01T11:44:13;95037.88;;;39.65;35.17
7774;BME280;3931;42.260;23.116;2022-09-01T11:46:40;95034.91;;;38.60;35.43
7774;BME280;3931;42.260;23.116;2022-09-01T11:49:26;95030.28;;;38.81;35.14
7774;BME280;3931;42.260;23.116;2022-09-01T11:51:53;95023.72;;;38.30;34.79
7774;BME280;3931;42.260;23.116;2022-09-01T11:54:20;95015.34;;;38.11;35.28
7774;BME280;3931;42.260;23.116;2022-09-01T11:56:47;95020.53;;;38.62;34.79
7774;BME280;3931;42.260;23.116;2022-09-01T11:59:14;95016.31;;;38.77;35.12
7774;BME280;3931;42.260;23.116;2022-09-01T12:01:56;95022.16;;;39.43;34.82
7774;BME280;3931;42.260;23.116;2022-09-01T12:04:25;95016.16;;;38.36;35.86
7774;BME280;3931;42.260;23.116;2022-09-01T12:06:55;95004.81;;;38.04;35.46
7774;BME280;3931;42.260;23.116;2022-09-01T12:09:31;95021.47;;;38.28;35.01
7774;BME280;3931;42.260;23.116;2022-09-01T12:11:57;95019.22;;;38.77;34.53
7774;BME280;3931;42.260;23.116;2022-09-01T12:14:25;95018.88;;;38.71;34.55
7774;BME280;3931;42.260;23.116;2022-09-01T12:17:05;95013.78;;;39.22;33.84
7774;BME280;3931;42.260;23.116;2022-09-01T12:19:33;95017.56;;;39.52;34.01
7774;BME280;3931;42.260;23.116;2022-09-01T12:22:02;95006.72;;;39.39;33.21
7774;BME280;3931;42.260;23.116;2022-09-01T12:24:31;95007.47;;;39.25;33.55
7774;BME280;3931;42.260;23.116;2022-09-01T12:26:59;95000.84;;;38.98;33.75
7774;BME280;3931;42.260;23.116;2022-09-01T12:29:27;95001.78;;;39.55;34.11
7774;BME280;3931;42.260;23.116;2022-09-01T12:31:54;94999.94;;;38.82;34.02
7774;BME280;3931;42.260;23.116;2022-09-01T12:34:26;94995.75;;;39.91;33.67
7774;BME280;3931;42.260;23.116;2022-09-01T12:37:05;94987.31;;;39.27;33.99
7774;BME280;3931;42.260;23.116;2022-09-01T12:39:33;94994.38;;;39.24;34.31
7774;BME280;3931;42.260;23.116;2022-09-01T12:42:03;94988.28;;;39.32;34.43
7774;BME280;3931;42.260;23.116;2022-09-01T12:44:33;94985.38;;;39.18;33.57
7774;BME280;3931;42.260;23.116;2022-09-01T12:47:01;94983.69;;;39.02;34.07
7774;BME280;3931;42.260;23.116;2022-09-01T12:49:35;94987.09;;;39.37;34.38
7774;BME280;3931;42.260;23.116;2022-09-01T12:52:09;94981.69;;;38.65;34.08
7774;BME280;3931;42.260;23.116;2022-09-01T12:54:36;94986.38;;;38.98;34.40
7774;BME280;3931;42.260;23.116;2022-09-01T12:57:03;94985.69;;;39.38;33.63
7774;BME280;3931;42.260;23.116;2022-09-01T12:59:30;94984.00;;;39.19;33.67
7774;BME280;3931;42.260;23.116;2022-09-01T13:01:57;94983.69;;;39.02;34.38
7774;BME280;3931;42.260;23.116;2022-09-01T13:04:26;94981.25;;;38.46;34.19
7774;BME280;3931;42.260;23.116;2022-09-01T13:06:54;94982.19;;;38.62;35.17
7774;BME280;3931;42.260;23.116;2022-09-01T13:09:20;94978.41;;;39.23;34.85
7774;BME280;3931;42.260;23.116;2022-09-01T13:11:47;94990.34;;;39.57;33.78
7774;BME280;3931;42.260;23.116;2022-09-01T13:14:13;94982.22;;;39.01;33.98
7774;BME280;3931;42.260;23.116;2022-09-01T13:16:40;94985.97;;;39.03;33.99
7774;BME280;3931;42.260;23.116;2022-09-01T13:19:07;94977.44;;;39.60;33.71
7774;BME280;3931;42.260;23.116;2022-09-01T13:21:34;94982.31;;;39.03;34.63
7774;BME280;3931;42.260;23.116;2022-09-01T13:24:02;94974.78;;;39.64;34.03
7774;BME280;3931;42.260;23.116;2022-09-01T13:26:29;94968.38;;;39.94;33.46
7774;BME280;3931;42.260;23.116;2022-09-01T13:28:55;94977.97;;;39.29;34.58